Time;durP1;ratioP1;P1;durP2;ratioP2;P2;SDS_P1;SDS_P2;PMS_P1;PMS_P2;Temp;Humidity;BMP_temperature;BMP_pressure;BME280_temperature;BME280_humidity;BME280_pressure;Samples;Min_cycle;Max_cycle;Signal;HPM_P1;HPM_P2
2020/12/21 00:06:01;;;;;;;4.43;2.58;;;21.80;49.40;;;;;;20914442;28;20021;-15
2020/12/21 00:16:02;;;;;;;7.93;2.88;;;21.70;49.20;;;;;;20912583;28;20033;-16
2020/12/21 00:26:02;;;;;;;3.72;2.28;;;21.60;49.30;;;;;;20921745;28;20099;-16
2020/12/21 00:36:05;;;;;;;4.07;2.85;;;21.30;49.50;;;;;;20908552;28;20044;-15
2020/12/21 00:46:06;;;;;;;4.65;2.60;;;21.20;49.70;;;;;;20905957;28;20021;-14
2020/12/21 00:56:07;;;;;;;4.38;2.35;;;21.10;49.90;;;;;;20907201;28;20029;-16
2020/12/21 01:06:07;;;;;;;3.30;2.33;;;21.10;49.80;;;;;;20906506;28;20526;-15
2020/12/21 01:16:09;;;;;;;4.43;2.58;;;21.00;49.70;;;;;;20907417;28;20037;-15
2020/12/21 01:26:10;;;;;;;4.45;2.78;;;20.90;49.80;;;;;;20915678;28;20047;-15
2020/12/21 01:36:11;;;;;;;3.38;2.47;;;20.90;49.70;;;;;;20907715;28;20025;-15
2020/12/21 01:46:14;;;;;;;3.97;1.92;;;20.80;49.70;;;;;;20903385;28;20048;-16
2020/12/21 01:56:16;;;;;;;3.30;2.03;;;20.80;49.60;;;;;;20919687;28;20037;-15
2020/12/21 02:06:17;;;;;;;4.53;2.67;;;20.70;49.60;;;;;;20947295;22;20044;-15
2020/12/21 02:16:18;;;;;;;3.83;1.90;;;20.70;49.60;;;;;;20921059;28;20048;-15
2020/12/21 02:26:19;;;;;;;3.22;2.30;;;20.60;49.60;;;;;;20926991;28;20036;-16
2020/12/21 02:36:19;;;;;;;2.67;1.95;;;20.60;49.50;;;;;;20918695;28;20037;-16
2020/12/21 02:46:20;;;;;;;3.53;1.50;;;20.60;49.50;;;;;;20918441;28;20025;-15
2020/12/21 02:56:20;;;;;;;4.32;2.03;;;20.50;49.40;;;;;;20924127;28;20033;-15
2020/12/21 03:06:21;;;;;;;3.95;1.80;;;20.50;49.30;;;;;;20924459;28;20029;-16
2020/12/21 03:16:23;;;;;;;4.03;1.85;;;20.40;49.30;;;;;;20907287;28;20013;-16
2020/12/21 03:26:23;;;;;;;5.78;2.13;;;20.40;49.30;;;;;;20941934;28;20374;-15
2020/12/21 03:36:24;;;;;;;1.90;1.50;;;20.40;49.20;;;;;;20930335;28;20024;-15
2020/12/21 03:46:25;;;;;;;2.70;1.85;;;20.30;49.00;;;;;;20931315;28;20024;-16
2020/12/21 03:56:25;;;;;;;4.65;1.92;;;20.30;49.10;;;;;;20934322;28;20060;-16
2020/12/21 04:06:26;;;;;;;2.42;1.40;;;20.20;49.10;;;;;;20929803;28;20166;-15
2020/12/21 04:16:26;;;;;;;3.10;1.27;;;20.20;49.00;;;;;;20903737;28;20021;-15
2020/12/21 04:26:27;;;;;;;3.65;1.92;;;20.10;49.10;;;;;;20911248;28;20035;-15
2020/12/21 04:36:27;;;;;;;4.40;2.17;;;20.10;49.00;;;;;;20921239;28;20021;-15
2020/12/21 04:46:28;;;;;;;4.07;2.00;;;20.10;49.00;;;;;;20921912;28;20082;-16
2020/12/21 04:56:29;;;;;;;3.63;1.40;;;20.10;49.20;;;;;;20921492;28;20052;-15
2020/12/21 05:06:30;;;;;;;5.28;2.25;;;20.00;49.20;;;;;;20924784;28;20024;-15
2020/12/21 05:16:30;;;;;;;3.80;1.42;;;20.00;49.20;;;;;;20928393;28;20109;-16
2020/12/21 05:26:32;;;;;;;6.38;1.65;;;20.40;48.70;;;;;;20900822;28;20531;-16
2020/12/21 05:36:33;;;;;;;3.03;1.25;;;21.00;47.40;;;;;;20926490;28;20082;-16
2020/12/21 05:46:33;;;;;;;3.70;1.02;;;21.50;45.90;;;;;;20926452;28;20025;-16
2020/12/21 05:56:36;;;;;;;3.55;1.40;;;21.80;45.40;;;;;;20904238;28;20063;-16
2020/12/21 06:06:36;;;;;;;3.53;1.13;;;21.70;45.50;;;;;;20903644;28;20032;-16
2020/12/21 06:16:37;;;;;;;4.35;1.63;;;21.50;45.70;;;;;;20917565;28;20407;-16
2020/12/21 06:26:38;;;;;;;3.35;1.30;;;21.40;46.10;;;;;;20889054;28;20057;-16
2020/12/21 06:36:38;;;;;;;6.00;1.30;;;21.20;46.20;;;;;;20885035;28;20052;-16
2020/12/21 06:46:39;;;;;;;4.63;1.70;;;21.20;46.20;;;;;;20910372;28;20026;-16
2020/12/21 06:56:40;;;;;;;4.20;1.40;;;21.10;46.20;;;;;;20915558;28;20577;-16
2020/12/21 07:06:42;;;;;;;2.83;1.17;;;21.10;46.10;;;;;;20921547;28;20040;-16
2020/12/21 07:16:42;;;;;;;10.40;2.45;;;21.10;46.40;;;;;;20939531;28;20388;-16
2020/12/21 07:26:43;;;;;;;9.95;3.22;;;21.10;46.60;;;;;;20942330;28;20039;-16
2020/12/21 07:36:43;;;;;;;8.38;3.58;;;21.10;46.90;;;;;;20939162;28;20024;-16
2020/12/21 07:46:57;;;;;;;11.13;3.27;;;21.00;46.80;;;;;;20915080;28;20371;-17
2020/12/21 07:57:05;;;;;;;8.82;3.00;;;21.00;46.80;;;;;;20897524;28;20487;-18
2020/12/21 08:07:10;;;;;;;10.23;3.03;;;21.00;46.80;;;;;;20904608;28;20037;-16
2020/12/21 08:17:16;;;;;;;7.57;2.25;;;21.10;46.80;;;;;;21046265;22;20040;-16
2020/12/21 08:27:20;;;;;;;7.65;2.58;;;21.00;46.80;;;;;;20989983;28;20039;-16
2020/12/21 08:37:24;;;;;;;8.50;3.20;;;20.80;47.30;;;;;;21021297;28;20037;-16
2020/12/21 08:47:24;;;;;;;15.07;2.60;;;20.60;47.70;;;;;;21026957;28;20028;-16
2020/12/21 08:57:25;;;;;;;8.55;2.58;;;20.50;48.20;;;;;;20995493;28;20094;-16
2020/12/21 09:07:25;;;;;;;9.13;2.70;;;20.50;48.70;;;;;;20982720;28;20036;-16
2020/12/21 09:17:26;;;;;;;8.48;2.38;;;20.40;49.20;;;;;;21010146;28;20511;-16
2020/12/21 09:27:27;;;;;;;27.20;2.75;;;20.30;49.50;;;;;;21008720;28;20484;-16
2020/12/21 09:37:27;;;;;;;10.57;2.75;;;20.30;49.80;;;;;;21043219;28;20039;-17
2020/12/21 09:47:28;;;;;;;8.63;2.37;;;20.30;49.70;;;;;;21032487;28;20100;-15
2020/12/21 09:57:29;;;;;;;11.55;2.28;;;20.20;49.90;;;;;;21021197;28;20092;-15
2020/12/21 10:07:29;;;;;;;17.77;2.67;;;20.20;50.00;;;;;;21024319;28;20028;-15
2020/12/21 10:17:30;;;;;;;10.73;2.28;;;20.20;50.40;;;;;;21024885;28;20071;-15
2020/12/21 10:27:30;;;;;;;17.73;3.50;;;20.10;50.40;;;;;;21064339;28;20456;-17
2020/12/21 10:37:31;;;;;;;11.55;2.47;;;20.20;50.50;;;;;;21073204;28;20042;-17
2020/12/21 10:47:31;;;;;;;8.90;2.53;;;20.10;50.00;;;;;;21024717;28;20024;-16
2020/12/21 10:57:32;;;;;;;16.58;4.13;;;20.50;49.90;;;;;;21077587;28;20024;-16
2020/12/21 11:07:32;;;;;;;14.10;3.97;;;21.10;49.20;;;;;;21024387;28;20028;-16
2020/12/21 11:17:33;;;;;;;10.93;3.20;;;21.70;48.50;;;;;;21080338;28;20035;-16
2020/12/21 11:27:34;;;;;;;11.20;3.35;;;22.50;47.00;;;;;;21080412;28;20028;-14
2020/12/21 11:37:35;;;;;;;10.63;2.88;;;23.00;46.00;;;;;;21079357;28;20032;-16
2020/12/21 11:47:37;;;;;;;13.20;2.58;;;23.40;44.70;;;;;;21064978;28;20138;-16
2020/12/21 11:57:38;;;;;;;15.65;2.47;;;23.70;44.10;;;;;;21007331;28;20028;-16
2020/12/21 12:07:39;;;;;;;8.57;2.58;;;23.90;44.00;;;;;;21005610;28;20393;-16
2020/12/21 12:17:40;;;;;;;8.68;1.88;;;23.60;44.80;;;;;;21000104;28;20032;-16
2020/12/21 12:27:40;;;;;;;14.70;2.53;;;23.20;45.60;;;;;;21009403;28;20030;-14
2020/12/21 12:37:41;;;;;;;8.60;3.08;;;22.90;46.80;;;;;;21035428;28;20063;-16
2020/12/21 12:47:43;;;;;;;16.20;2.63;;;22.80;46.60;;;;;;21055844;28;20059;-16
2020/12/21 12:57:44;;;;;;;14.70;2.50;;;22.70;46.90;;;;;;21017683;28;20024;-16
2020/12/21 13:07:44;;;;;;;14.85;2.58;;;22.60;47.20;;;;;;21077348;28;20056;-16
2020/12/21 13:17:45;;;;;;;14.52;2.28;;;22.60;47.40;;;;;;21033722;28;20484;-16
2020/12/21 13:27:46;;;;;;;12.85;3.40;;;22.60;47.30;;;;;;20992669;28;20123;-16
2020/12/21 13:37:47;;;;;;;21.65;2.22;;;22.60;47.50;;;;;;21031746;28;20518;-16
2020/12/21 13:47:48;;;;;;;20.08;3.13;;;22.50;47.50;;;;;;21029309;28;20385;-15
2020/12/21 13:57:48;;;;;;;11.63;2.00;;;22.50;47.50;;;;;;21009519;28;20488;-14
2020/12/21 14:07:49;;;;;;;13.45;2.45;;;22.60;47.10;;;;;;21017904;28;20056;-15
2020/12/21 14:17:51;;;;;;;17.20;2.67;;;22.50;47.20;;;;;;20989721;23;20066;-16
2020/12/21 14:27:52;;;;;;;10.68;2.78;;;22.60;47.10;;;;;;20903432;28;20059;-16
2020/12/21 14:37:52;;;;;;;10.65;3.00;;;22.60;47.40;;;;;;20901464;28;20082;-16
2020/12/21 14:47:54;;;;;;;9.27;2.83;;;22.60;47.10;;;;;;20900860;28;20024;-17
2020/12/21 14:57:54;;;;;;;13.35;2.00;;;22.70;47.00;;;;;;20900351;28;20033;-16
2020/12/21 15:07:55;;;;;;;13.77;2.10;;;22.60;47.10;;;;;;20900533;28;20439;-16
2020/12/21 15:17:55;;;;;;;6.43;1.77;;;22.70;46.90;;;;;;20913867;28;20057;-15
2020/12/21 15:27:56;;;;;;;4.82;1.25;;;22.60;47.00;;;;;;20908101;28;20033;-16
2020/12/21 15:37:57;;;;;;;8.05;1.52;;;22.70;46.80;;;;;;20907668;28;20037;-16
2020/12/21 15:47:58;;;;;;;7.45;1.92;;;22.60;46.90;;;;;;20904556;28;20047;-16
2020/12/21 15:57:58;;;;;;;5.43;1.90;;;22.70;46.90;;;;;;20908435;28;20429;-16
2020/12/21 16:07:59;;;;;;;5.63;1.30;;;22.60;46.90;;;;;;20908436;28;20064;-16
2020/12/21 16:17:59;;;;;;;6.25;1.92;;;22.70;46.60;;;;;;20908579;28;20866;-29
2020/12/21 16:28:00;;;;;;;3.67;1.67;;;22.60;46.70;;;;;;20905471;28;20029;-16
2020/12/21 16:38:00;;;;;;;6.97;2.00;;;22.60;46.90;;;;;;20906030;28;20120;-16
2020/12/21 16:48:01;;;;;;;8.45;2.28;;;22.60;47.40;;;;;;20902272;28;20382;-16
2020/12/21 16:58:01;;;;;;;16.42;7.88;;;22.60;48.20;;;;;;20900417;28;20068;-16
2020/12/21 17:08:02;;;;;;;12.52;8.77;;;22.50;48.60;;;;;;20902099;28;20162;-17
2020/12/21 17:18:02;;;;;;;12.87;7.63;;;22.60;48.70;;;;;;20898436;28;20124;-16
2020/12/21 17:28:03;;;;;;;21.90;10.07;;;22.50;49.00;;;;;;20897673;28;20025;-16
2020/12/21 17:38:04;;;;;;;15.52;9.70;;;22.50;49.00;;;;;;20896427;28;20044;-16
2020/12/21 17:48:04;;;;;;;14.13;8.35;;;22.50;49.80;;;;;;20898111;28;20105;-19
2020/12/21 17:58:06;;;;;;;14.13;8.20;;;22.60;49.90;;;;;;20896950;28;20033;-17
2020/12/21 18:08:06;;;;;;;12.95;7.78;;;22.60;50.20;;;;;;20900641;28;20040;-17
2020/12/21 18:18:07;;;;;;;18.00;9.35;;;22.80;50.20;;;;;;20900472;28;20493;-17
2020/12/21 18:28:07;;;;;;;12.88;9.73;;;22.70;50.80;;;;;;20896162;28;20481;-17
2020/12/21 18:38:08;;;;;;;18.65;9.32;;;22.80;51.10;;;;;;20900139;28;20447;-17
2020/12/21 18:48:08;;;;;;;19.40;9.52;;;22.70;52.80;;;;;;20910405;28;20037;-16
2020/12/21 18:58:09;;;;;;;13.43;9.02;;;22.90;52.90;;;;;;20916761;28;20059;-17
2020/12/21 19:08:09;;;;;;;14.15;7.95;;;22.80;53.10;;;;;;20918909;28;20028;-17
2020/12/21 19:18:10;;;;;;;15.50;7.60;;;22.60;53.10;;;;;;20916486;28;20037;-17
2020/12/21 19:28:10;;;;;;;17.33;7.80;;;22.50;53.10;;;;;;20915047;28;20067;-17
2020/12/21 19:38:12;;;;;;;13.23;7.75;;;22.50;53.00;;;;;;20913449;28;20108;-17
2020/12/21 19:48:13;;;;;;;11.13;6.82;;;22.40;52.90;;;;;;20915135;28;20029;-17
2020/12/21 19:58:14;;;;;;;11.25;7.10;;;22.40;52.70;;;;;;20912209;28;20477;-17
2020/12/21 20:08:15;;;;;;;13.38;7.10;;;22.40;52.90;;;;;;20907589;28;20059;-17
2020/12/21 20:18:16;;;;;;;9.32;6.35;;;22.50;52.50;;;;;;20917384;28;20064;-16
2020/12/21 20:28:17;;;;;;;10.10;5.60;;;22.50;53.20;;;;;;20904346;28;20052;-16
2020/12/21 20:38:18;;;;;;;12.27;5.20;;;22.90;52.70;;;;;;21044960;23;20051;-16
2020/12/21 20:48:19;;;;;;;7.97;5.65;;;22.90;52.90;;;;;;21051386;28;20214;-16
2020/12/21 20:58:19;;;;;;;11.48;4.63;;;22.90;52.80;;;;;;21017952;28;20178;-15
2020/12/21 21:08:20;;;;;;;11.70;5.35;;;22.80;52.20;;;;;;20986568;28;20055;-16
2020/12/21 21:18:20;;;;;;;17.15;6.07;;;22.60;53.80;;;;;;20986116;28;20532;-14
2020/12/21 21:28:21;;;;;;;17.80;5.40;;;22.60;54.50;;;;;;21025714;28;20032;-16
2020/12/21 21:38:21;;;;;;;15.25;6.18;;;22.50;55.30;;;;;;20987165;28;20113;-15
2020/12/21 21:48:22;;;;;;;14.20;4.68;;;22.40;56.20;;;;;;20984178;28;20028;-16
2020/12/21 21:58:23;;;;;;;11.13;5.82;;;22.20;56.70;;;;;;20983253;28;20029;-16
2020/12/21 22:08:23;;;;;;;12.23;4.38;;;22.10;57.60;;;;;;21013409;28;20032;-15
2020/12/21 22:18:24;;;;;;;13.07;4.70;;;21.90;56.90;;;;;;20992652;28;20099;-16
2020/12/21 22:28:24;;;;;;;10.90;5.27;;;21.70;57.30;;;;;;21001862;28;20112;-16
2020/12/21 22:38:25;;;;;;;11.35;4.43;;;21.60;56.70;;;;;;21067911;28;20477;-17
2020/12/21 22:48:25;;;;;;;15.82;5.30;;;21.50;56.50;;;;;;21085077;28;20020;-16
2020/12/21 22:58:26;;;;;;;15.57;5.85;;;21.40;56.60;;;;;;21076559;28;20031;-16
2020/12/21 23:08:26;;;;;;;12.77;5.45;;;21.30;56.20;;;;;;21083363;28;20197;-16
2020/12/21 23:18:27;;;;;;;11.00;4.82;;;21.20;56.10;;;;;;21083347;28;20024;-17
2020/12/21 23:28:28;;;;;;;11.15;5.72;;;21.10;56.30;;;;;;21081917;28;20024;-15
2020/12/21 23:38:29;;;;;;;15.30;3.97;;;21.00;56.30;;;;;;21074633;28;20055;-15
2020/12/21 23:48:29;;;;;;;6.70;3.85;;;20.90;56.50;;;;;;21080687;28;20450;-15
2020/12/21 23:58:30;;;;;;;9.40;3.42;;;20.70;56.60;;;;;;21079351;28;20468;-15
